Latest Weather Observations for McCluer Island

IDD60801

Issued at 3:31 pm CST Thursday 29 January 2015 (issued every 30 minutes, with the page automatically refreshed every 10 minutes)

About weather observations | Map of weather stations | Latest weather observations for NT | Other Formats
Station Details ID: 014274 Name: MCCLUER ISLAND Lat: -11.05 Lon: 132.98 Height: 1.4 m
Data from the previous 72 hours. | See also: Recent months at McCluer Island
Date/Time
CST
Temp
°C
App
Temp
°C
Dew
Point
Rel
Hum
%
Delta-T
°C
Wind Press
QNH
hPa
Press
MSL
hPa
Rain
since 9 am
mm
Dir
 
Spd
km/h
Gust
km/h
Spd
kts
Gust
kts
29/03:30pm 29.8 - 30.7 - - NW 28 33 15 18 1004.6 - 0.0
29/03:00pm 31.3 - 32.2 - - NW 20 24 11 13 1004.6 1004.6 0.0
29/02:30pm 30.4 - 31.3 - - NW 19 20 10 11 1004.8 - 0.0
29/02:00pm 30.5 - 31.4 - - NW 15 19 8 10 1004.9 - 0.0
29/01:30pm 30.2 - 31.1 - - WNW 17 20 9 11 1005.1 - 0.0
29/01:00pm 30.4 - 31.3 - - NW 15 17 8 9 1005.3 - 0.0
29/12:30pm 30.3 - 31.2 - - NW 15 17 8 9 1006.0 - 0.0
29/12:00pm 30.2 - 31.1 - - WNW 13 17 7 9 1006.6 1006.6 0.0
29/11:30am 30.0 - 30.9 - - NW 7 9 4 5 1006.7 - 0.0
29/11:00am 29.7 - 30.6 - - NW 7 11 4 6 1007.0 - 0.0
29/10:30am 29.7 - 30.6 - - NW 13 17 7 9 1007.3 - 0.0
29/10:00am 29.5 - 30.4 - - WNW 15 17 8 9 1007.5 - 0.0
29/09:30am 28.6 - 29.4 - - WNW 15 17 8 9 1007.5 - 0.0
29/09:00am 28.4 - 29.2 - - WNW 13 15 7 8 1007.4 1007.4 0.2
29/08:30am 28.0 - 28.8 - - W 7 9 4 5 1006.8 - 0.2
29/08:00am 27.6 - 28.4 - - WSW 11 13 6 7 1006.2 - 0.2
29/07:30am 27.2 - 28.0 - - WSW 11 15 6 8 1006.0 - 0.2
29/07:00am 26.7 - 27.5 - - WSW 11 13 6 7 1005.7 - 0.2
29/06:30am 26.4 - 27.2 - - S 7 9 4 5 1005.3 - 0.2
29/06:00am 26.1 - 26.9 - - SSE 11 15 6 8 1004.7 1004.7 0.2
29/05:30am 25.8 - 26.6 - - SSE 13 17 7 9 1004.5 - 0.2
29/05:00am 25.9 - 26.7 - - SE 11 13 6 7 1005.1 - 0.2
29/04:30am 26.2 - 27.0 - - SSE 9 13 5 7 1005.5 - 0.2
29/04:00am 26.2 - 27.0 - - SSE 17 22 9 12 1004.8 - 0.2
29/03:30am 26.1 - 26.9 - - S 17 20 9 11 1005.6 - 0.2
29/03:00am 26.5 - 27.3 - - S 20 26 11 14 1005.5 1005.5 0.2
29/02:30am 26.7 - 27.5 - - SSE 11 17 6 9 1006.0 - 0.2
29/02:00am 26.7 - 27.5 - - SSE 17 22 9 12 1006.1 - 0.2
29/01:30am 26.8 - 27.6 - - S 20 28 11 15 1005.9 - 0.2
29/01:00am 27.4 - 28.2 - - S 15 20 8 11 1006.6 - 0.2
29/12:30am 28.1 - 28.9 - - SW 28 33 15 18 1006.7 - 0.2
29/12:00am 27.8 - 28.6 - - WSW 24 30 13 16 1007.0 1007.0 0.2
 
Date/Time
CST
Temp
°C
App
Temp
°C
Dew
Point
Rel
Hum
%
Delta-T
°C
Wind Press
QNH
hPa
Press
MSL
hPa
Rain
since 9 am
mm
Dir
 
Spd
km/h
Gust
km/h
Spd
kts
Gust
kts
28/11:30pm 28.0 - 28.8 - - WSW 22 26 12 14 1007.2 - 0.2
28/11:00pm 28.4 - 29.2 - - WSW 22 28 12 15 1007.1 - 0.2
28/10:30pm 28.6 - 29.4 - - W 22 28 12 15 1007.0 - 0.2
28/10:00pm 28.5 - 29.3 - - W 26 32 14 17 1006.6 - 0.2
28/09:30pm 28.6 - 29.6 - - W 26 33 14 18 1006.4 - 0.2
28/09:00pm 28.6 - 29.4 - - W 30 35 16 19 1006.4 1006.4 0.2
28/08:30pm 28.7 - 29.5 - - W 30 33 16 18 1005.7 - 0.2
28/08:00pm 28.7 - 29.5 - - W 26 30 14 16 1005.1 - 0.2
28/07:30pm 28.8 - 29.6 - - WNW 28 32 15 17 1004.8 - 0.2
28/07:00pm 29.0 - 29.8 - - WNW 32 35 17 19 1004.3 - 0.2
28/06:30pm 29.3 - 30.1 - - WNW 33 37 18 20 1003.8 - 0.2
28/06:00pm 29.7 - 30.6 - - WNW 33 41 18 22 1003.5 1003.5 0.2
28/05:30pm 29.9 - 30.8 - - WNW 39 44 21 24 1003.0 - 0.2
28/05:00pm 29.5 - 30.4 - - WNW 35 41 19 22 1002.7 - 0.2
28/04:30pm 29.4 - 30.2 - - WNW 33 37 18 20 1002.7 - 0.2
28/04:00pm 30.1 - 31.0 - - WNW 28 33 15 18 1002.4 - 0.2
28/03:30pm 30.2 - 31.1 - - WNW 28 32 15 17 1002.4 - 0.2
28/03:00pm 30.3 - 31.2 - - WNW 28 32 15 17 1003.3 1003.3 0.2
28/02:30pm 30.7 - 31.6 - - WNW 26 32 14 17 1003.7 - 0.2
28/02:00pm 30.7 - 31.6 - - WNW 28 32 15 17 1004.0 - 0.2
28/01:30pm 30.6 - 31.5 - - WNW 26 32 14 17 1004.3 - 0.2
28/01:00pm 30.3 - 31.2 - - WNW 28 32 15 17 1004.6 - 0.2
28/12:30pm 30.0 - 30.9 - - WNW 30 33 16 18 1004.8 - 0.2
28/12:00pm 29.7 - 30.6 - - WNW 26 32 14 17 1005.4 1005.4 0.2
28/11:30am 30.8 - 31.7 - - W 17 22 9 12 1005.6 - 0.2
28/11:00am 29.9 - 30.8 - - W 17 22 9 12 1005.8 - 0.2
28/10:30am 29.8 - 30.7 - - W 19 24 10 13 1005.7 - 0.0
28/10:00am 29.4 - 30.2 - - W 20 26 11 14 1005.7 - 0.0
28/09:30am 29.0 - 29.8 - - W 20 24 11 13 1005.7 - 0.0
28/09:00am 29.2 - 30.0 - - W 17 22 9 12 1005.7 1005.7 0.2
28/08:30am 28.5 - 29.3 - - W 17 22 9 12 1005.5 - 0.2
28/08:00am 28.1 - 28.9 - - W 19 24 10 13 1005.1 - 0.2
28/07:30am 27.7 - 28.5 - - W 19 22 10 12 1005.0 - 0.2
28/07:00am 27.7 - 28.7 - - WSW 19 24 10 13 1004.8 - 0.2
28/06:30am 27.7 - 28.5 - - WSW 20 26 11 14 1004.5 - 0.2
28/06:00am 27.6 - 28.4 - - W 17 22 9 12 1004.0 1004.0 0.2
28/05:30am 27.6 - 28.4 - - W 19 24 10 13 1003.7 - 0.2
28/05:00am 27.6 - 28.4 - - W 24 30 13 16 1003.6 - 0.2
28/04:30am 27.7 - 28.5 - - W 22 28 12 15 1003.4 - 0.2
28/04:00am 27.8 - 28.6 - - W 22 30 12 16 1003.7 - 0.2
28/03:30am 27.7 - 28.5 - - WSW 24 30 13 16 1003.8 - 0.2
28/03:00am 27.7 - 28.5 - - W 24 30 13 16 1004.2 1004.2 0.2
28/02:30am 27.7 - 28.5 - - WSW 26 30 14 16 1004.2 - 0.2
28/02:00am 27.7 - 28.5 - - WSW 26 28 14 15 1004.6 - 0.2
28/01:30am 27.7 - 28.5 - - WSW 26 32 14 17 1005.1 - 0.2
28/01:00am 27.6 - 28.4 - - W 24 28 13 15 1005.7 - 0.2
28/12:30am 27.6 - 28.4 - - WSW 24 30 13 16 1006.1 - 0.2
28/12:00am 27.8 - 28.6 - - WSW 32 35 17 19 1006.5 1006.5 0.2
 
Date/Time
CST
Temp
°C
App
Temp
°C
Dew
Point
Rel
Hum
%
Delta-T
°C
Wind Press
QNH
hPa
Press
MSL
hPa
Rain
since 9 am
mm
Dir
 
Spd
km/h
Gust
km/h
Spd
kts
Gust
kts
27/11:30pm 28.0 - 28.8 - - WSW 28 32 15 17 1006.6 - 0.2
27/11:00pm 28.0 - 28.8 - - WSW 22 28 12 15 1006.5 - 0.2
27/10:30pm 28.0 - 28.8 - - W 20 26 11 14 1006.4 - 0.2
27/10:00pm 28.1 - 28.9 - - W 26 32 14 17 1006.6 - 0.2
27/09:30pm 28.1 - 28.9 - - W 26 32 14 17 1006.6 - 0.2
27/09:00pm 28.1 - 28.9 - - W 28 35 15 19 1006.2 1006.2 0.2
27/08:30pm 28.2 - 29.0 - - W 28 33 15 18 1005.4 - 0.2
27/08:00pm 28.1 - 28.9 - - W 30 33 16 18 1004.9 - 0.2
27/07:30pm 27.9 - 28.7 - - W 28 32 15 17 1005.1 - 0.2
27/07:00pm 27.9 - 28.7 - - WNW 32 35 17 19 1004.7 - 0.2
27/06:30pm 27.9 - 28.7 - - W 24 28 13 15 1003.9 - 0.2
27/06:00pm 28.0 - 28.8 - - W 22 32 12 17 1003.6 1003.6 0.2
27/05:30pm 27.6 - 28.4 - - W 17 22 9 12 1003.4 - 0.2
27/05:00pm 27.0 - 27.8 - - W 17 22 9 12 1003.7 - 0.2
27/04:30pm 26.6 - 27.4 - - WSW 19 24 10 13 1003.6 - 0.2
27/04:00pm 25.4 - 26.2 - - SSW 19 22 10 12 1003.8 - 0.2
27/03:30pm 26.4 - 27.2 - - SW 43 54 23 29 1004.4 - 0.0
27/03:27pm 26.8 - 27.6 - - WSW 46 54 25 29 1004.5 - 0.0
27/03:00pm 29.9 - 30.8 - - WNW 33 39 18 21 1004.7 1004.7 0.0
27/02:30pm 30.3 - 31.2 - - WNW 33 41 18 22 1005.0 - 0.0
27/02:00pm 29.2 - 30.0 - - WNW 32 35 17 19 1004.9 - 0.0
27/01:30pm 29.9 - 30.8 - - WNW 26 32 14 17 1005.3 - 0.0
27/01:00pm 30.5 - 31.4 - - WNW 30 33 16 18 1006.0 - 0.0
27/12:30pm 30.3 - 31.2 - - WNW 28 33 15 18 1006.3 - 0.0
27/12:00pm 30.4 - 31.3 - - WNW 28 32 15 17 1006.9 1006.9 0.0
27/11:30am 30.1 - 31.0 - - W 26 32 14 17 1007.3 - 0.0
27/11:00am 29.9 - 30.8 - - W 26 30 14 16 1007.5 - 0.0
27/10:30am 30.1 - 31.0 - - W 26 30 14 16 1007.9 - 0.0
27/10:00am 29.5 - 30.4 - - W 22 30 12 16 1007.8 - 0.0
27/09:30am 29.8 - 30.7 - - W 24 28 13 15 1008.0 - 0.0
27/09:00am 29.0 - 29.8 - - W 26 32 14 17 1008.2 1008.2 0.0
27/08:30am 28.9 - 29.7 - - W 26 32 14 17 1008.1 - 0.0
27/08:00am 28.6 - 29.4 - - W 22 28 12 15 1007.8 - 0.0
27/07:30am 28.2 - 29.0 - - W 30 35 16 19 1007.6 - 0.0
27/07:00am 28.1 - 28.9 - - W 35 41 19 22 1007.3 - 0.0
27/06:30am 28.0 - 28.8 - - W 33 43 18 23 1006.9 - 0.0
27/06:00am 27.9 - 28.7 - - W 32 39 17 21 1006.3 1006.3 0.0
27/05:30am 28.0 - 28.8 - - WNW 32 37 17 20 1006.1 - 0.0
27/05:00am 27.9 - 28.7 - - WNW 30 35 16 19 1006.0 - 0.0
27/04:30am 27.9 - 28.7 - - WNW 33 39 18 21 1006.0 - 0.0
27/04:00am 28.0 - 28.8 - - WNW 32 35 17 19 1006.0 - 0.0
27/03:30am 28.1 - 28.9 - - WNW 32 37 17 20 1005.8 - 0.0
27/03:00am 27.9 - 28.7 - - WNW 32 39 17 21 1005.8 1005.8 0.0
27/02:30am 28.0 - 28.8 - - W 35 39 19 21 1005.8 - 0.0
27/02:00am 28.0 - 28.8 - - W 26 33 14 18 1006.6 - 0.0
27/01:30am 28.0 - 28.8 - - W 24 32 13 17 1007.2 - 0.0
27/01:00am 28.1 - 28.9 - - W 26 35 14 19 1007.5 - 0.0
27/12:30am 28.1 - 28.9 - - W 26 33 14 18 1007.9 - 0.0
27/12:00am 28.1 - 28.9 - - W 32 35 17 19 1008.1 1008.1 0.0
 
Date/Time
CST
Temp
°C
App
Temp
°C
Dew
Point
Rel
Hum
%
Delta-T
°C
Wind Press
QNH
hPa
Press
MSL
hPa
Rain
since 9 am
mm
Dir
 
Spd
km/h
Gust
km/h
Spd
kts
Gust
kts
26/11:30pm 28.2 - 29.0 - - W 28 35 15 19 1008.4 - 0.0
26/11:00pm 28.3 - 29.1 - - W 32 37 17 20 1008.2 - 0.0
26/10:30pm 28.3 - 29.1 - - W 28 35 15 19 1007.8 - 0.0
26/10:00pm 28.1 - 28.9 - - W 30 33 16 18 1007.7 - 0.0
26/09:30pm 28.3 - 29.1 - - WNW 30 33 16 18 1007.3 - 0.0
26/09:00pm 28.4 - 29.2 - - W 28 33 15 18 1007.3 1007.3 0.0
26/08:30pm 28.4 - 29.2 - - WNW 32 37 17 20 1007.0 - 0.0
26/08:00pm 28.3 - 29.1 - - WNW 30 35 16 19 1006.9 - 0.0
26/07:30pm 28.3 - 29.1 - - W 32 37 17 20 1006.7 - 0.0
26/07:00pm 28.8 - 29.6 - - WNW 32 39 17 21 1006.5 - 0.0
26/06:30pm 29.0 - 29.8 - - WNW 32 35 17 19 1006.4 - 0.0
26/06:00pm 29.1 - 29.9 - - WNW 30 33 16 18 1006.1 1006.1 0.0
26/05:30pm 29.9 - 30.8 - - NW 30 35 16 19 1006.1 - 0.0
26/05:00pm 30.2 - 31.1 - - WNW 30 35 16 19 1006.2 - 0.0
26/04:30pm 30.1 - 31.0 - - WNW 30 33 16 18 1006.3 - 0.0
26/04:00pm 30.1 - 31.0 - - WNW 32 35 17 19 1006.3 - 0.0

Other Formats:

Comma delimited format used in spreadsheet applications
http://www.bom.gov.au/fwo/IDD60801/IDD60801.94135.axf

JavaScript Object Notation format (JSON) in row-major order
http://www.bom.gov.au/fwo/IDD60801/IDD60801.94135.json